Terminal Aerodrome Forecast
Issued by NWS

Home | Current Version | Previous Version | Text Only | Print | Product List | Glossary On
Versions: 1 2 3 4 5 6 7 8 9 10 11 12 13 14 15 16 17 18 19 20
000
FTUS43 KDDC 281722
TAFGCK
TAF
KGCK 281722Z 2818/2918 33012KT P6SM FEW200
     FM282300 03010KT P6SM VCSH BKN070
     FM290100 03015KT P6SM SHRA OVC035
     FM290600 02023G31KT 3SM RA OVC008
     FM290800 02025G33KT 3SM RASN OVC008
     FM291100 01025G34KT 2SM -SN OVC008=

USA.gov is the U.S. government's official web portal to all federal, state and local government web resources and services.